Time;durP1;ratioP1;P1;durP2;ratioP2;P2;SDS_P1;SDS_P2;PMS_P1;PMS_P2;Temp;Humidity;BMP_temperature;BMP_pressure;BME280_temperature;BME280_humidity;BME280_pressure;Samples;Min_cycle;Max_cycle;Signal;HPM_P1;HPM_P2
2022/11/01 00:02:14;;;;;;;5.03;4.45;;;19.80;67.70;;;;;;5072496;27;43914;-59
2022/11/01 00:04:41;;;;;;;4.93;4.45;;;19.80;67.70;;;;;;5073516;28;43960;-59
2022/11/01 00:07:09;;;;;;;4.60;4.20;;;19.70;67.70;;;;;;5077140;27;43385;-59
2022/11/01 00:09:36;;;;;;;4.68;4.20;;;19.80;67.70;;;;;;5078768;28;43604;-59
2022/11/01 00:12:04;;;;;;;4.60;4.20;;;19.70;67.70;;;;;;5079442;27;44070;-59
2022/11/01 00:14:32;;;;;;;4.30;4.00;;;19.80;67.80;;;;;;5067217;27;43982;-59
2022/11/01 00:16:59;;;;;;;4.65;3.97;;;19.70;67.80;;;;;;5075767;28;43324;-59
2022/11/01 00:19:26;;;;;;;4.32;3.90;;;19.70;67.80;;;;;;5070962;28;43597;-59
2022/11/01 00:21:54;;;;;;;4.50;4.10;;;19.70;67.80;;;;;;5063534;27;44960;-59
2022/11/01 00:24:21;;;;;;;4.43;4.03;;;19.70;67.80;;;;;;5073521;28;43456;-59
2022/11/01 00:26:49;;;;;;;5.25;4.00;;;19.70;67.70;;;;;;5076553;27;43464;-59
2022/11/01 00:29:16;;;;;;;4.95;4.22;;;19.70;67.70;;;;;;5079002;28;43375;-59
2022/11/01 00:31:43;;;;;;;5.25;3.95;;;19.70;67.70;;;;;;5078570;27;44767;-59
2022/11/01 00:34:11;;;;;;;4.53;4.10;;;19.70;67.70;;;;;;5075829;27;43988;-59
2022/11/01 00:36:38;;;;;;;4.65;4.10;;;19.70;67.70;;;;;;5078362;28;43775;-59
2022/11/01 00:39:06;;;;;;;4.80;4.30;;;19.70;67.80;;;;;;5078339;28;43544;-59
2022/11/01 00:41:34;;;;;;;4.20;3.80;;;19.70;67.80;;;;;;5077436;28;44702;-59
2022/11/01 00:44:02;;;;;;;4.95;4.40;;;19.70;67.80;;;;;;5067227;27;44114;-59
2022/11/01 00:46:31;;;;;;;4.70;4.00;;;19.70;67.80;;;;;;5074181;28;43513;-59
2022/11/01 00:48:58;;;;;;;4.28;3.88;;;19.70;67.80;;;;;;5079057;28;43529;-59
2022/11/01 00:51:26;;;;;;;4.28;3.90;;;19.60;67.70;;;;;;5078813;28;44797;-59
2022/11/01 00:53:53;;;;;;;4.30;3.90;;;19.60;67.70;;;;;;5078672;27;43481;-59
2022/11/01 00:56:21;;;;;;;4.10;3.80;;;19.70;67.80;;;;;;5075826;27;43377;-59
2022/11/01 00:58:48;;;;;;;4.25;3.85;;;19.60;67.80;;;;;;5078410;28;43664;-59
2022/11/01 01:01:15;;;;;;;4.53;3.58;;;19.60;67.80;;;;;;5078436;27;44719;-59
2022/11/01 01:03:43;;;;;;;4.32;3.92;;;19.60;68.40;;;;;;5078954;27;43453;-59
2022/11/01 01:06:10;;;;;;;4.75;3.95;;;19.60;67.80;;;;;;5075547;27;43485;-59
2022/11/01 01:08:38;;;;;;;4.22;3.80;;;19.60;67.80;;;;;;5078253;28;43402;-59
2022/11/01 01:11:05;;;;;;;4.40;4.00;;;19.60;67.80;;;;;;5078843;27;43768;-59
2022/11/01 01:13:33;;;;;;;4.10;3.70;;;19.60;67.80;;;;;;5077818;27;44079;-59
2022/11/01 01:16:05;;;;;;;4.75;3.85;;;19.60;67.80;;;;;;5076362;27;43466;-59
2022/11/01 01:18:33;;;;;;;4.43;3.70;;;19.60;67.80;;;;;;5078513;28;43559;-59
2022/11/01 01:21:02;;;;;;;4.38;3.97;;;19.60;67.80;;;;;;5069210;27;44898;-59
2022/11/01 01:23:30;;;;;;;4.53;3.92;;;19.60;67.80;;;;;;5074215;28;43981;-59
2022/11/01 01:25:58;;;;;;;4.32;3.92;;;19.60;67.80;;;;;;5065482;27;43481;-59
2022/11/01 01:28:25;;;;;;;4.05;3.75;;;19.50;67.80;;;;;;5078197;27;43408;-59
2022/11/01 01:30:52;;;;;;;3.90;3.60;;;19.60;67.90;;;;;;5078609;27;44957;-59
2022/11/01 01:33:20;;;;;;;4.07;3.78;;;19.50;67.80;;;;;;5078436;27;43992;-59
2022/11/01 01:35:47;;;;;;;4.18;3.85;;;19.60;67.80;;;;;;5062871;28;43439;-59
2022/11/01 01:38:14;;;;;;;4.97;3.80;;;19.60;67.80;;;;;;5065396;28;43442;-59
2022/11/01 01:40:42;;;;;;;3.83;3.45;;;19.60;67.80;;;;;;5073205;28;43900;-59
2022/11/01 01:43:11;;;;;;;4.13;3.72;;;19.60;67.80;;;;;;5074805;27;43518;-59
2022/11/01 01:45:40;;;;;;;3.90;3.50;;;19.60;67.80;;;;;;5065084;28;43543;-59
2022/11/01 01:48:23;;;;;;;4.22;3.90;;;19.60;67.80;;;;;;5082417;27;43419;-59
2022/11/01 01:51:01;;;;;;;4.47;4.05;;;19.60;67.80;;;;;;5081787;27;44528;-59
2022/11/01 01:53:42;;;;;;;4.07;3.67;;;19.50;67.80;;;;;;5078277;27;43701;-59
2022/11/01 01:56:12;;;;;;;3.60;3.30;;;19.50;67.80;;;;;;5081290;27;43530;-59
2022/11/01 01:58:47;;;;;;;4.57;3.97;;;19.50;67.80;;;;;;5081592;27;43576;-59
2022/11/01 02:01:14;;;;;;;4.18;3.67;;;19.50;67.80;;;;;;5079335;27;44075;-59
2022/11/01 02:03:43;;;;;;;3.97;3.60;;;19.50;67.80;;;;;;5079464;28;44193;-59
2022/11/01 02:06:14;;;;;;;4.18;3.53;;;19.50;67.80;;;;;;5081901;27;43466;-59
2022/11/01 02:08:46;;;;;;;4.00;3.60;;;19.50;67.80;;;;;;5081520;27;43620;-59
2022/11/01 02:11:15;;;;;;;5.05;3.60;;;19.50;67.80;;;;;;5065013;28;44041;-59
2022/11/01 02:13:42;;;;;;;3.80;3.50;;;19.50;67.80;;;;;;5081584;27;44323;-59
2022/11/01 02:16:25;;;;;;;4.07;3.65;;;19.50;67.80;;;;;;5081588;27;43402;-59
2022/11/01 02:19:11;;;;;;;4.15;3.75;;;19.50;67.80;;;;;;5079288;27;43481;-59
2022/11/01 02:21:50;;;;;;;3.70;3.40;;;19.50;67.70;;;;;;5064011;28;44934;-59
2022/11/01 02:24:45;;;;;;;3.60;3.30;;;19.50;67.80;;;;;;5075219;28;43508;-59
2022/11/01 02:27:42;;;;;;;3.80;3.50;;;19.50;67.80;;;;;;5067439;28;43461;-59
2022/11/01 02:30:19;;;;;;;4.95;3.33;;;19.50;67.80;;;;;;5081149;27;43533;-59
2022/11/01 02:33:19;;;;;;;4.20;3.80;;;19.50;67.90;;;;;;5077139;27;45025;-59
2022/11/01 02:35:57;;;;;;;3.72;3.42;;;19.50;67.90;;;;;;5080772;27;44331;-59
2022/11/01 02:38:47;;;;;;;4.03;3.67;;;19.40;67.90;;;;;;5079363;27;43429;-59
2022/11/01 02:41:24;;;;;;;4.30;3.30;;;19.40;67.90;;;;;;5064518;28;43466;-59
2022/11/01 02:43:58;;;;;;;3.55;3.28;;;19.40;67.90;;;;;;5074155;28;45016;-59
2022/11/01 02:49:20;;;;;;;3.67;3.38;;;19.40;68.00;;;;;;5070546;28;43476;-59
2022/11/01 02:51:49;;;;;;;3.70;3.40;;;19.40;68.00;;;;;;5064569;27;43533;-59
2022/11/01 02:54:50;;;;;;;3.83;3.53;;;19.40;68.00;;;;;;5076654;28;44795;-59
2022/11/01 02:57:27;;;;;;;3.30;3.00;;;19.40;68.00;;;;;;5068181;28;43910;-59
2022/11/01 03:00:01;;;;;;;3.53;3.22;;;19.40;68.00;;;;;;5080492;27;43454;-59
2022/11/01 03:02:41;;;;;;;4.88;4.00;;;19.40;68.00;;;;;;5078414;28;43494;-59
2022/11/01 03:05:16;;;;;;;3.33;3.13;;;19.40;68.00;;;;;;5082684;27;44821;-59
2022/11/01 03:07:49;;;;;;;3.45;3.15;;;19.40;68.00;;;;;;5079860;27;43974;-59
2022/11/01 03:10:19;;;;;;;3.42;3.13;;;19.40;68.00;;;;;;5064967;28;43631;-59
2022/11/01 03:13:21;;;;;;;3.33;3.05;;;19.40;68.00;;;;;;5080693;27;43394;-59
2022/11/01 03:15:59;;;;;;;4.00;3.60;;;19.40;68.00;;;;;;5042451;28;44904;-59
2022/11/01 03:18:34;;;;;;;3.40;3.10;;;19.40;68.00;;;;;;5080239;28;43448;-59
2022/11/01 03:21:16;;;;;;;3.90;3.60;;;19.40;68.00;;;;;;5079869;27;43450;-59
2022/11/01 03:23:54;;;;;;;3.53;3.22;;;19.40;68.10;;;;;;5078317;27;43652;-59
2022/11/01 03:26:26;;;;;;;3.50;3.20;;;19.40;68.00;;;;;;5079556;28;45161;-59
2022/11/01 03:28:58;;;;;;;3.97;3.22;;;19.40;68.00;;;;;;5080160;27;43959;-59
2022/11/01 03:31:31;;;;;;;3.58;3.28;;;19.40;68.00;;;;;;5079997;28;43987;-59
2022/11/01 03:34:11;;;;;;;3.65;3.17;;;19.40;68.00;;;;;;5078281;28;43415;-59
2022/11/01 03:36:44;;;;;;;3.65;3.35;;;19.40;68.00;;;;;;5079866;27;44963;-60
2022/11/01 03:39:36;;;;;;;3.53;3.22;;;19.40;68.00;;;;;;5080443;27;43962;-59
2022/11/01 03:42:10;;;;;;;3.30;3.00;;;19.30;68.00;;;;;;5066727;28;43412;-59
2022/11/01 03:44:42;;;;;;;3.60;3.20;;;19.30;68.00;;;;;;5063841;27;43559;-59
2022/11/01 03:47:10;;;;;;;3.35;3.03;;;19.30;68.00;;;;;;5076233;28;44969;-59
2022/11/01 03:49:38;;;;;;;4.53;3.28;;;19.40;68.00;;;;;;5076761;28;43368;-59
2022/11/01 03:52:05;;;;;;;4.18;3.28;;;19.40;68.00;;;;;;5080616;27;43431;-59
2022/11/01 03:54:33;;;;;;;3.35;3.05;;;19.30;68.00;;;;;;5079317;27;43577;-60
2022/11/01 03:57:00;;;;;;;3.50;3.20;;;19.30;68.00;;;;;;5079115;27;44956;-59
2022/11/01 03:59:28;;;;;;;3.20;3.00;;;19.30;68.10;;;;;;5076763;28;43997;-60
2022/11/01 04:01:55;;;;;;;3.20;2.90;;;19.40;68.10;;;;;;5080134;27;43423;-59
2022/11/01 04:04:23;;;;;;;3.45;3.15;;;19.30;68.10;;;;;;5079645;27;43620;-59
2022/11/01 04:06:51;;;;;;;3.40;3.10;;;19.30;68.00;;;;;;5063186;27;44920;-59
2022/11/01 04:09:18;;;;;;;3.47;3.17;;;19.30;68.00;;;;;;5076758;28;43993;-59
2022/11/01 04:11:45;;;;;;;3.30;3.00;;;19.40;68.00;;;;;;5079808;27;43454;-60
2022/11/01 04:22:32;;;;;;;3.42;3.13;;;19.30;68.10;;;;;;5075240;28;43502;-59
2022/11/01 04:24:59;;;;;;;3.47;3.17;;;19.30;68.10;;;;;;5076497;28;43586;-60
2022/11/01 04:27:26;;;;;;;3.00;2.70;;;19.30;68.10;;;;;;5079635;27;44991;-59
2022/11/01 04:29:54;;;;;;;2.97;2.72;;;19.30;68.00;;;;;;5079772;27;43503;-59
2022/11/01 04:32:21;;;;;;;3.38;3.08;;;19.30;68.10;;;;;;5079135;27;43415;-59
2022/11/01 04:34:49;;;;;;;3.90;3.15;;;19.30;68.10;;;;;;5076445;28;43507;-60
2022/11/01 04:37:16;;;;;;;3.35;3.08;;;19.30;68.10;;;;;;5078771;27;45026;-59
2022/11/01 04:39:43;;;;;;;3.60;3.30;;;19.30;68.10;;;;;;5079221;27;43494;-59
2022/11/01 04:42:11;;;;;;;2.92;2.67;;;19.30;68.10;;;;;;5079486;27;43498;-59
2022/11/01 04:44:39;;;;;;;3.42;3.08;;;19.30;68.00;;;;;;5062287;28;43672;-60
2022/11/01 04:47:06;;;;;;;3.90;3.00;;;19.30;68.00;;;;;;5079270;27;45012;-59
2022/11/01 04:49:34;;;;;;;3.08;2.83;;;19.30;68.00;;;;;;5079115;27;43453;-59
2022/11/01 04:52:01;;;;;;;3.33;2.92;;;19.30;68.00;;;;;;5078814;27;43458;-59
2022/11/01 04:54:32;;;;;;;3.72;3.05;;;19.40;68.10;;;;;;5075953;28;43568;-60
2022/11/01 04:56:59;;;;;;;2.83;2.63;;;19.30;68.00;;;;;;5079424;27;44990;-59
2022/11/01 04:59:27;;;;;;;3.08;2.67;;;19.30;68.10;;;;;;5078601;27;43358;-60
2022/11/01 05:01:54;;;;;;;3.22;3.03;;;19.30;68.20;;;;;;5078842;27;43377;-59
2022/11/01 05:04:22;;;;;;;2.90;2.70;;;19.30;68.10;;;;;;5076398;28;43601;-59
2022/11/01 05:06:49;;;;;;;3.42;3.13;;;19.30;68.10;;;;;;5078359;27;43882;-59
2022/11/01 05:09:16;;;;;;;2.95;2.75;;;19.30;68.10;;;;;;5078984;27;43389;-59
2022/11/01 05:11:44;;;;;;;3.10;2.90;;;19.30;68.10;;;;;;5081943;27;43394;-59
2022/11/01 05:14:11;;;;;;;3.20;2.90;;;19.30;68.10;;;;;;5079895;28;43565;-59
2022/11/01 05:16:39;;;;;;;3.15;2.90;;;19.30;68.10;;;;;;5081872;27;44998;-59
2022/11/01 05:19:06;;;;;;;4.47;3.15;;;19.30;68.10;;;;;;5082294;27;44087;-59
2022/11/01 05:21:33;;;;;;;3.00;2.80;;;19.30;68.10;;;;;;5067518;27;43482;-59
2022/11/01 05:24:01;;;;;;;3.30;3.00;;;19.30;68.20;;;;;;5080081;28;43416;-59
2022/11/01 05:26:28;;;;;;;2.90;2.70;;;19.30;68.20;;;;;;5075885;27;45027;-59
2022/11/01 05:28:56;;;;;;;3.13;2.90;;;19.30;68.20;;;;;;5075065;28;43962;-59
2022/11/01 05:31:23;;;;;;;3.30;3.00;;;19.30;68.20;;;;;;5082205;27;43454;-59
2022/11/01 05:33:50;;;;;;;4.10;2.97;;;19.30;68.20;;;;;;5077850;28;43565;-59
2022/11/01 05:36:18;;;;;;;3.40;3.10;;;19.30;68.20;;;;;;5070066;28;44117;-59
2022/11/01 05:38:45;;;;;;;3.42;2.92;;;19.30;68.20;;;;;;5082223;27;43685;-59
2022/11/01 05:41:13;;;;;;;3.30;3.00;;;19.30;68.20;;;;;;5081487;27;43386;-59
2022/11/01 05:43:40;;;;;;;3.13;2.80;;;19.30;68.20;;;;;;5071351;28;43472;-59
2022/11/01 05:46:08;;;;;;;3.10;2.85;;;19.30;68.20;;;;;;5069735;28;43783;-59
2022/11/01 05:48:35;;;;;;;3.47;2.80;;;19.30;68.30;;;;;;5080885;27;43984;-59
2022/11/01 05:51:02;;;;;;;3.17;2.85;;;19.30;68.20;;;;;;5082160;27;43435;-59
2022/11/01 05:53:30;;;;;;;3.63;2.75;;;19.30;68.20;;;;;;5078537;28;43623;-59
2022/11/01 05:55:58;;;;;;;2.83;2.63;;;19.30;68.30;;;;;;5080817;27;44986;-59
2022/11/01 05:58:26;;;;;;;2.90;2.70;;;19.30;68.30;;;;;;5081565;27;43972;-59
2022/11/01 06:01:04;;;;;;;2.95;2.75;;;19.20;68.20;;;;;;5081047;27;43372;-59
2022/11/01 06:03:33;;;;;;;3.80;2.83;;;19.30;68.30;;;;;;5072279;28;43454;-59
2022/11/01 06:06:01;;;;;;;3.15;2.85;;;19.20;68.30;;;;;;5070123;27;45003;-59
2022/11/01 06:08:29;;;;;;;2.88;2.67;;;19.30;68.20;;;;;;5067387;28;44020;-59
2022/11/01 06:11:05;;;;;;;3.30;2.67;;;19.30;68.20;;;;;;5077882;28;43446;-59
2022/11/01 06:13:33;;;;;;;3.33;2.38;;;19.30;68.20;;;;;;5070823;27;43504;-60
2022/11/01 06:16:03;;;;;;;3.10;2.72;;;19.30;68.10;;;;;;5080772;27;43738;-60
2022/11/01 06:18:31;;;;;;;2.60;2.40;;;19.30;68.10;;;;;;5073211;27;43703;-60
2022/11/01 06:20:58;;;;;;;2.80;2.60;;;19.30;68.20;;;;;;5070152;28;43523;-59
2022/11/01 06:23:26;;;;;;;2.40;2.20;;;19.30;68.20;;;;;;5066570;28;43560;-59
2022/11/01 06:26:01;;;;;;;3.83;2.60;;;19.30;68.20;;;;;;5080842;27;45122;-60
2022/11/01 06:28:29;;;;;;;2.60;2.40;;;19.30;68.20;;;;;;5067617;27;43965;-60
2022/11/01 06:31:01;;;;;;;2.58;2.20;;;19.30;68.20;;;;;;5070220;28;43518;-60
2022/11/01 06:33:29;;;;;;;2.50;2.30;;;19.30;68.20;;;;;;5063009;27;43419;-60
2022/11/01 06:35:57;;;;;;;2.60;2.40;;;19.30;68.30;;;;;;5062421;28;44431;-60
2022/11/01 06:38:25;;;;;;;2.28;2.08;;;19.30;68.30;;;;;;5067104;28;43822;-60
2022/11/01 06:40:52;;;;;;;2.25;2.05;;;19.30;68.20;;;;;;5071841;28;43385;-60
2022/11/01 06:43:19;;;;;;;2.58;2.35;;;19.30;68.20;;;;;;5075427;28;43661;-60
2022/11/01 06:45:47;;;;;;;2.50;2.30;;;19.30;68.20;;;;;;5073076;28;44991;-60
2022/11/01 06:48:14;;;;;;;3.05;2.45;;;19.30;68.10;;;;;;5068769;28;43445;-60
2022/11/01 06:50:42;;;;;;;2.80;2.28;;;19.30;68.10;;;;;;5065759;28;43480;-60
2022/11/01 06:53:10;;;;;;;2.55;2.28;;;19.30;68.10;;;;;;5072368;27;43597;-59
2022/11/01 06:55:38;;;;;;;1.98;1.85;;;19.30;68.00;;;;;;5072178;28;44701;-59
2022/11/01 06:58:05;;;;;;;2.13;1.92;;;19.30;68.00;;;;;;5069100;28;43409;-59
2022/11/01 07:00:33;;;;;;;2.78;2.03;;;19.30;68.00;;;;;;5076906;28;43408;-59
2022/11/01 07:03:05;;;;;;;2.00;1.90;;;19.30;68.00;;;;;;5063659;28;43589;-59
2022/11/01 07:05:35;;;;;;;1.83;1.73;;;19.30;68.00;;;;;;5072735;28;44143;-59
2022/11/01 07:08:06;;;;;;;2.30;2.10;;;19.30;67.90;;;;;;5072490;28;43470;-59
2022/11/01 07:10:35;;;;;;;2.37;1.87;;;19.30;68.20;;;;;;4174234;28;10000975;-59
2022/11/01 07:13:04;;;;;;;1.85;1.70;;;19.30;67.90;;;;;;4175774;27;10000526;-59
2022/11/01 07:15:33;;;;;;;2.45;1.80;;;19.30;67.80;;;;;;5065724;28;43788;-59
2022/11/01 07:18:03;;;;;;;2.63;1.95;;;19.30;67.80;;;;;;5070283;28;43435;-59
2022/11/01 07:20:40;;;;;;;1.85;1.75;;;19.30;67.70;;;;;;5069050;28;43371;-59
2022/11/01 07:23:14;;;;;;;1.70;1.60;;;19.30;67.80;;;;;;5064221;28;43502;-59
2022/11/01 07:25:42;;;;;;;3.25;1.90;;;19.30;67.80;;;;;;5069164;28;43870;-59
2022/11/01 07:28:09;;;;;;;2.85;1.80;;;19.30;67.80;;;;;;5070787;28;43761;-58
2022/11/01 07:30:38;;;;;;;1.70;1.60;;;19.30;68.00;;;;;;5067615;28;43485;-59
2022/11/01 07:33:05;;;;;;;3.25;1.77;;;19.40;67.80;;;;;;5064785;27;43467;-58
2022/11/01 07:35:34;;;;;;;1.98;1.70;;;19.30;67.60;;;;;;5062937;27;44181;-58
2022/11/01 07:38:02;;;;;;;3.17;1.70;;;19.30;67.50;;;;;;5064415;28;43485;-59
2022/11/01 07:40:49;;;;;;;2.37;1.73;;;19.30;67.60;;;;;;3633418;28;10002352;-60
2022/11/01 07:43:17;;;;;;;3.22;1.55;;;19.40;67.70;;;;;;5069408;28;45239;-59
2022/11/01 07:45:44;;;;;;;3.63;1.80;;;19.40;67.50;;;;;;4176199;27;10000698;-59
2022/11/01 07:48:14;;;;;;;1.80;1.65;;;19.40;67.30;;;;;;5064102;27;45354;-59
2022/11/01 07:50:43;;;;;;;2.73;1.97;;;19.40;67.30;;;;;;5063272;27;43518;-59
2022/11/01 07:53:16;;;;;;;2.50;1.42;;;19.40;67.30;;;;;;5069417;28;43464;-59
2022/11/01 07:55:44;;;;;;;3.78;1.90;;;19.40;67.30;;;;;;5064427;27;44129;-59
2022/11/01 07:58:12;;;;;;;2.03;1.60;;;19.40;67.30;;;;;;4172524;28;10000491;-59
2022/11/01 08:00:41;;;;;;;2.13;1.42;;;19.50;67.30;;;;;;5071348;28;43423;-59
2022/11/01 08:03:18;;;;;;;2.20;1.50;;;19.50;67.20;;;;;;5065023;28;43892;-59
2022/11/01 08:05:46;;;;;;;1.98;1.30;;;19.50;67.10;;;;;;5077940;27;43578;-59
2022/11/01 08:08:14;;;;;;;1.60;1.50;;;19.50;67.00;;;;;;5061804;28;43609;-60
2022/11/01 08:10:42;;;;;;;3.78;1.70;;;19.50;67.90;;;;;;5066893;28;43524;-58
2022/11/01 08:13:18;;;;;;;4.60;2.50;;;19.50;67.20;;;;;;5067023;28;44345;-60
2022/11/01 08:15:47;;;;;;;3.63;1.92;;;19.40;67.00;;;;;;5062324;28;44034;-57
2022/11/01 08:18:16;;;;;;;8.45;5.90;;;19.50;67.10;;;;;;5065558;28;43450;-60
2022/11/01 08:20:43;;;;;;;14.70;9.48;;;19.50;67.40;;;;;;5067867;28;43485;-58
2022/11/01 08:23:11;;;;;;;18.15;14.40;;;19.50;68.50;;;;;;5066298;28;45144;-58
2022/11/01 08:25:39;;;;;;;18.10;15.23;;;19.60;67.50;;;;;;5068332;27;43990;-58
2022/11/01 08:28:18;;;;;;;18.25;14.07;;;19.60;67.50;;;;;;5066017;28;43492;-59
2022/11/01 08:30:48;;;;;;;20.20;14.57;;;19.80;68.00;;;;;;5065817;28;43490;-60
2022/11/01 08:33:15;;;;;;;19.70;13.55;;;19.80;67.60;;;;;;5066279;28;43779;-59
2022/11/01 08:35:43;;;;;;;16.75;13.43;;;19.90;67.20;;;;;;5063499;28;43626;-59
2022/11/01 08:38:17;;;;;;;16.92;12.20;;;20.00;67.20;;;;;;5063621;28;43490;-59
2022/11/01 08:40:44;;;;;;;16.63;11.00;;;20.10;67.10;;;;;;5068255;28;43696;-58
2022/11/01 08:43:12;;;;;;;15.57;11.40;;;20.20;66.80;;;;;;5062200;28;44959;-58
2022/11/01 08:45:39;;;;;;;14.05;11.05;;;20.20;66.70;;;;;;5065174;28;44020;-58
2022/11/01 08:48:08;;;;;;;13.00;10.20;;;20.30;66.30;;;;;;5066718;28;43539;-59
2022/11/01 08:50:36;;;;;;;12.10;9.38;;;20.40;66.20;;;;;;5074027;28;43655;-58
2022/11/01 08:53:12;;;;;;;11.75;9.10;;;20.50;66.10;;;;;;5068800;27;44060;-57
2022/11/01 08:55:40;;;;;;;10.88;8.55;;;20.60;66.00;;;;;;5075918;28;43993;-58
2022/11/01 08:58:08;;;;;;;10.50;7.57;;;20.70;65.60;;;;;;5069228;28;43487;-58
2022/11/01 09:00:36;;;;;;;11.05;7.43;;;20.70;65.20;;;;;;5065469;28;43651;-58
2022/11/01 09:03:03;;;;;;;11.05;7.00;;;20.80;65.00;;;;;;5075608;28;44009;-58
2022/11/01 09:05:31;;;;;;;8.10;6.07;;;20.90;65.00;;;;;;5069570;28;43523;-58
2022/11/01 09:07:59;;;;;;;9.75;5.90;;;21.00;64.90;;;;;;5068536;27;43582;-58
2022/11/01 09:10:29;;;;;;;7.75;5.85;;;21.10;64.70;;;;;;5067281;28;43782;-58
2022/11/01 09:12:58;;;;;;;9.75;6.10;;;21.20;64.60;;;;;;5066015;28;43992;-58
2022/11/01 09:15:27;;;;;;;8.35;5.20;;;21.30;64.40;;;;;;5068381;28;43798;-59
2022/11/01 09:17:54;;;;;;;8.73;5.47;;;21.40;64.30;;;;;;5067612;28;43492;-58
2022/11/01 09:20:22;;;;;;;7.13;4.70;;;21.40;63.90;;;;;;5067671;28;43613;-58
2022/11/01 09:22:53;;;;;;;7.65;4.93;;;21.50;63.70;;;;;;5062916;28;44748;-58
2022/11/01 09:25:21;;;;;;;9.15;5.07;;;21.50;63.80;;;;;;5069565;28;44024;-58
2022/11/01 09:27:48;;;;;;;9.93;5.00;;;21.50;63.60;;;;;;5067565;28;43462;-58
2022/11/01 09:30:16;;;;;;;7.47;4.60;;;21.60;63.60;;;;;;5067887;27;44078;-58
2022/11/01 09:32:43;;;;;;;7.65;4.63;;;21.60;63.50;;;;;;5065654;28;44003;-59
2022/11/01 09:35:10;;;;;;;7.40;4.28;;;21.70;63.80;;;;;;5067387;28;43701;-59
2022/11/01 09:37:38;;;;;;;8.65;4.53;;;21.80;64.30;;;;;;5064184;28;43477;-59
2022/11/01 09:40:06;;;;;;;6.80;3.90;;;21.90;64.00;;;;;;5059555;27;43591;-59
2022/11/01 09:42:40;;;;;;;6.82;3.97;;;22.00;63.60;;;;;;4179622;28;10000697;-59
2022/11/01 09:45:30;;;;;;;6.57;3.85;;;22.00;63.00;;;;;;5066690;28;43530;-59
2022/11/01 09:48:00;;;;;;;5.50;3.38;;;22.10;62.80;;;;;;5066188;28;44087;-59
2022/11/01 09:50:38;;;;;;;5.88;3.55;;;22.20;62.70;;;;;;5065531;28;44350;-59
2022/11/01 09:53:17;;;;;;;5.60;3.30;;;22.20;62.60;;;;;;5061485;28;43573;-59
2022/11/01 09:56:09;;;;;;;5.55;3.28;;;22.30;62.50;;;;;;4174412;27;10000282;-60
2022/11/01 09:59:31;;;;;;;6.53;3.10;;;22.30;62.40;;;;;;4176767;28;10000454;-58
2022/11/01 10:02:36;;;;;;;5.07;3.03;;;22.30;63.00;;;;;;5011502;28;51747;-59
2022/11/01 10:05:21;;;;;;;7.07;3.08;;;22.30;62.30;;;;;;5073120;28;43449;-59
2022/11/01 10:08:12;;;;;;;6.60;3.00;;;22.20;62.30;;;;;;5068395;28;43428;-59
2022/11/01 10:10:51;;;;;;;4.95;2.55;;;22.20;62.50;;;;;;5065303;28;43753;-59
2022/11/01 10:13:34;;;;;;;7.03;2.97;;;22.20;62.70;;;;;;5069695;28;43391;-60
2022/11/01 10:16:21;;;;;;;5.95;2.97;;;22.20;62.60;;;;;;5069550;28;43494;-59
2022/11/01 10:19:03;;;;;;;5.35;2.70;;;22.10;62.50;;;;;;5066429;28;43447;-59
2022/11/01 10:21:41;;;;;;;4.88;2.30;;;22.10;62.50;;;;;;5071147;28;43966;-58
2022/11/01 10:24:33;;;;;;;5.75;2.65;;;22.10;62.60;;;;;;5068037;28;43421;-59
2022/11/01 10:27:30;;;;;;;5.57;2.60;;;22.10;62.60;;;;;;5053666;28;43505;-59
2022/11/01 10:30:17;;;;;;;6.38;2.40;;;22.10;62.70;;;;;;5061613;28;43627;-59
2022/11/01 10:32:47;;;;;;;6.07;2.40;;;22.10;62.70;;;;;;5063831;28;44065;-59
2022/11/01 10:35:28;;;;;;;4.47;2.80;;;22.10;62.80;;;;;;5066566;27;44773;-59
2022/11/01 10:38:06;;;;;;;4.25;2.45;;;22.10;62.80;;;;;;5064515;28;43402;-58
2022/11/01 10:41:05;;;;;;;6.45;2.40;;;22.00;62.70;;;;;;5067640;28;43501;-57
2022/11/01 10:43:41;;;;;;;5.72;2.60;;;22.10;63.00;;;;;;5068652;28;44990;-59
2022/11/01 10:46:16;;;;;;;4.78;2.20;;;22.00;62.80;;;;;;5064066;28;43720;-59
2022/11/01 10:48:59;;;;;;;6.95;2.70;;;22.00;62.80;;;;;;5069569;28;43434;-59
2022/11/01 10:51:30;;;;;;;6.80;2.42;;;22.00;62.70;;;;;;5063559;28;43545;-59
2022/11/01 10:54:03;;;;;;;6.78;2.58;;;22.00;63.00;;;;;;5069713;27;43795;-59
2022/11/01 10:56:36;;;;;;;6.93;2.45;;;22.00;63.20;;;;;;5069688;27;43399;-59
2022/11/01 10:59:09;;;;;;;6.80;2.55;;;21.90;63.20;;;;;;5068814;28;43412;-58
2022/11/01 11:01:41;;;;;;;6.25;2.50;;;21.90;62.90;;;;;;5076944;27;43368;-59
2022/11/01 11:04:15;;;;;;;6.63;2.30;;;21.90;63.00;;;;;;5070036;28;43781;-57
2022/11/01 11:06:43;;;;;;;5.15;2.67;;;21.90;63.30;;;;;;5074492;28;43498;-57
2022/11/01 11:09:22;;;;;;;6.35;2.58;;;21.90;63.30;;;;;;5076100;27;43957;-59
2022/11/01 11:11:50;;;;;;;5.90;2.40;;;21.90;63.40;;;;;;5070881;27;43438;-59
2022/11/01 11:14:20;;;;;;;5.57;2.30;;;21.90;63.00;;;;;;5070203;28;45337;-59
2022/11/01 11:16:59;;;;;;;6.47;2.58;;;21.90;63.00;;;;;;5069878;28;43964;-59
2022/11/01 11:19:33;;;;;;;5.55;2.30;;;21.80;63.40;;;;;;5068707;27;43697;-59
2022/11/01 11:22:05;;;;;;;6.78;2.25;;;21.80;63.10;;;;;;5069432;28;43411;-60
2022/11/01 11:24:36;;;;;;;7.10;2.40;;;21.80;63.50;;;;;;5070558;28;44785;-59
2022/11/01 11:27:16;;;;;;;4.70;1.98;;;21.80;63.20;;;;;;5069557;28;43766;-58
2022/11/01 11:29:49;;;;;;;5.35;2.13;;;21.70;63.30;;;;;;5068265;28;43439;-58
2022/11/01 11:32:26;;;;;;;4.93;2.08;;;21.70;63.50;;;;;;5066350;28;43462;-59
2022/11/01 11:35:00;;;;;;;4.93;2.17;;;21.70;63.50;;;;;;5066393;27;45042;-59
2022/11/01 11:37:30;;;;;;;6.55;1.90;;;21.70;63.60;;;;;;5067988;28;43421;-59
2022/11/01 11:40:15;;;;;;;4.80;2.20;;;21.70;63.60;;;;;;5066793;28;43568;-59
2022/11/01 11:42:44;;;;;;;6.30;2.35;;;21.70;63.70;;;;;;5071491;28;43581;-59
2022/11/01 11:45:19;;;;;;;5.60;2.10;;;21.60;63.60;;;;;;5069042;28;43830;-59
2022/11/01 11:47:48;;;;;;;4.50;2.20;;;21.60;63.70;;;;;;5068414;28;43359;-60
2022/11/01 11:50:22;;;;;;;3.65;2.10;;;21.60;63.70;;;;;;5065657;28;43473;-59
2022/11/01 11:53:01;;;;;;;5.38;2.13;;;21.60;63.70;;;;;;5065672;28;43537;-59
2022/11/01 11:55:38;;;;;;;5.63;2.40;;;21.60;63.70;;;;;;5065556;28;44126;-59
2022/11/01 11:58:19;;;;;;;5.65;1.90;;;21.60;64.00;;;;;;5064840;28;43490;-59
2022/11/01 12:00:48;;;;;;;;;;;21.60;64.00;;;;;;5064732;28;43436;-59
2022/11/01 12:03:17;;;;;;;5.85;2.30;;;21.60;64.10;;;;;;5065704;28;43577;-59
2022/11/01 12:06:00;;;;;;;5.22;2.00;;;21.60;64.20;;;;;;5069541;28;44037;-59
2022/11/01 12:08:36;;;;;;;4.68;2.13;;;21.60;64.00;;;;;;5067855;28;43407;-59
2022/11/01 12:11:04;;;;;;;5.38;1.83;;;21.60;64.10;;;;;;5066244;28;43468;-59
2022/11/01 12:13:37;;;;;;;3.15;1.70;;;21.60;64.10;;;;;;5073263;28;43478;-59
2022/11/01 12:16:16;;;;;;;4.72;2.00;;;21.60;64.00;;;;;;5067922;27;43968;-59
2022/11/01 12:18:46;;;;;;;4.90;2.00;;;21.60;64.10;;;;;;5067137;28;44654;-59
2022/11/01 12:21:21;;;;;;;5.50;2.08;;;21.60;64.00;;;;;;5065851;28;43361;-59
2022/11/01 12:23:54;;;;;;;3.25;1.90;;;21.60;64.10;;;;;;5071933;28;43409;-59
2022/11/01 12:26:23;;;;;;;5.05;2.10;;;21.50;64.10;;;;;;5067781;28;43764;-59
2022/11/01 12:29:18;;;;;;;4.75;2.00;;;21.50;64.10;;;;;;5062568;28;43534;-59
2022/11/01 12:31:48;;;;;;;4.53;1.80;;;21.50;64.10;;;;;;5075261;28;43403;-59
2022/11/01 12:34:22;;;;;;;5.27;2.30;;;21.50;64.10;;;;;;5068386;28;43480;-59
2022/11/01 12:36:52;;;;;;;5.78;2.20;;;21.50;64.10;;;;;;5067214;28;43938;-59
2022/11/01 12:40:01;;;;;;;4.15;2.10;;;21.50;64.20;;;;;;5073545;27;43684;-59
2022/11/01 12:42:39;;;;;;;6.03;2.25;;;21.50;64.20;;;;;;5072346;28;43465;-59
2022/11/01 12:45:33;;;;;;;4.07;1.70;;;21.50;64.10;;;;;;5059306;28;43477;-59
2022/11/01 12:48:12;;;;;;;4.55;1.92;;;21.50;64.10;;;;;;5065643;28;43811;-59
2022/11/01 12:50:49;;;;;;;3.88;1.92;;;21.50;64.10;;;;;;5077066;28;43475;-59
2022/11/01 12:53:33;;;;;;;4.57;2.38;;;21.50;64.20;;;;;;5069361;28;43457;-59
2022/11/01 12:56:01;;;;;;;3.95;1.98;;;21.50;64.10;;;;;;5067015;27;43428;-59
2022/11/01 12:58:29;;;;;;;4.82;1.90;;;21.50;64.10;;;;;;5076706;28;43756;-59
2022/11/01 13:01:18;;;;;;;;;;;21.40;64.10;;;;;;5072254;28;43413;-59
2022/11/01 13:04:14;;;;;;;3.90;2.08;;;21.40;64.10;;;;;;5071483;28;43507;-59
2022/11/01 13:07:13;;;;;;;4.07;1.95;;;21.40;64.20;;;;;;5064321;28;43553;-59
2022/11/01 13:10:03;;;;;;;5.32;2.17;;;21.40;64.20;;;;;;5071853;28;43892;-59
2022/11/01 13:12:43;;;;;;;3.67;2.08;;;21.40;64.20;;;;;;5061800;28;43631;-59
2022/11/01 13:15:47;;;;;;;3.80;1.80;;;21.40;64.30;;;;;;5069211;27;43446;-59
2022/11/01 13:18:23;;;;;;;5.38;2.00;;;21.40;64.20;;;;;;5066572;28;43463;-59
2022/11/01 13:21:14;;;;;;;5.20;1.98;;;21.40;64.30;;;;;;5068228;28;44010;-59
2022/11/01 13:23:54;;;;;;;3.55;1.65;;;21.40;64.30;;;;;;5062795;27;43379;-59
2022/11/01 13:26:28;;;;;;;5.05;1.70;;;21.40;64.40;;;;;;5063691;28;43506;-59